sensor_id;sensor_type;location;lat;lon;timestamp;P1;durP1;ratioP1;P2;durP2;ratioP2
64342;SDS011;50675;53.530;-6.312;2023-11-19T00:58:28;8.80;;;7.95;;
64342;SDS011;50675;53.530;-6.312;2023-11-19T01:30:51;11.43;;;10.07;;
64342;SDS011;50675;53.530;-6.312;2023-11-19T01:37:35;8.88;;;8.20;;
64342;SDS011;50675;53.530;-6.312;2023-11-19T01:40:26;9.25;;;8.75;;
64342;SDS011;50675;53.530;-6.312;2023-11-19T01:43:30;11.85;;;11.23;;
64342;SDS011;50675;53.530;-6.312;2023-11-19T01:50:19;12.82;;;11.77;;
64342;SDS011;50675;53.530;-6.312;2023-11-19T01:57:15;12.10;;;9.65;;
64342;SDS011;50675;53.530;-6.312;2023-11-19T02:08:18;9.27;;;8.77;;
64342;SDS011;50675;53.530;-6.312;2023-11-19T02:21:33;7.60;;;7.10;;
64342;SDS011;50675;53.530;-6.312;2023-11-19T02:28:14;8.27;;;7.38;;
64342;SDS011;50675;53.530;-6.312;2023-11-19T02:34:42;7.43;;;7.03;;
64342;SDS011;50675;53.530;-6.312;2023-11-19T02:46:00;9.05;;;7.28;;
64342;SDS011;50675;53.530;-6.312;2023-11-19T02:49:30;10.55;;;9.73;;
64342;SDS011;50675;53.530;-6.312;2023-11-19T02:53:13;12.35;;;10.15;;
64342;SDS011;50675;53.530;-6.312;2023-11-19T03:07:18;11.80;;;8.52;;
64342;SDS011;50675;53.530;-6.312;2023-11-19T03:10:15;8.65;;;8.05;;
64342;SDS011;50675;53.530;-6.312;2023-11-19T03:13:46;8.05;;;7.55;;
64342;SDS011;50675;53.530;-6.312;2023-11-19T03:20:02;9.85;;;9.15;;
64342;SDS011;50675;53.530;-6.312;2023-11-19T03:23:49;10.02;;;9.23;;
64342;SDS011;50675;53.530;-6.312;2023-11-19T03:27:03;14.00;;;11.63;;
64342;SDS011;50675;53.530;-6.312;2023-11-19T03:30:35;8.32;;;6.72;;
64342;SDS011;50675;53.530;-6.312;2023-11-19T03:33:58;7.95;;;7.22;;
64342;SDS011;50675;53.530;-6.312;2023-11-19T03:37:19;17.30;;;10.30;;
64342;SDS011;50675;53.530;-6.312;2023-11-19T03:40:40;10.98;;;10.30;;
64342;SDS011;50675;53.530;-6.312;2023-11-19T03:44:16;14.80;;;13.88;;
64342;SDS011;50675;53.530;-6.312;2023-11-19T03:50:19;8.32;;;7.72;;
64342;SDS011;50675;53.530;-6.312;2023-11-19T03:53:17;7.45;;;6.95;;
64342;SDS011;50675;53.530;-6.312;2023-11-19T04:19:18;8.18;;;7.68;;
64342;SDS011;50675;53.530;-6.312;2023-11-19T04:34:25;8.38;;;7.78;;
64342;SDS011;50675;53.530;-6.312;2023-11-19T04:46:00;8.07;;;7.53;;
64342;SDS011;50675;53.530;-6.312;2023-11-19T04:49:30;7.47;;;7.07;;
64342;SDS011;50675;53.530;-6.312;2023-11-19T04:52:59;9.10;;;8.30;;
64342;SDS011;50675;53.530;-6.312;2023-11-19T04:55:52;8.55;;;7.47;;
64342;SDS011;50675;53.530;-6.312;2023-11-19T04:59:16;12.18;;;11.57;;
64342;SDS011;50675;53.530;-6.312;2023-11-19T05:02:31;11.25;;;10.38;;
64342;SDS011;50675;53.530;-6.312;2023-11-19T05:05:50;12.88;;;12.05;;
64342;SDS011;50675;53.530;-6.312;2023-11-19T05:09:16;12.68;;;11.82;;
64342;SDS011;50675;53.530;-6.312;2023-11-19T05:12:42;11.00;;;10.40;;
64342;SDS011;50675;53.530;-6.312;2023-11-19T05:15:56;8.07;;;7.57;;
64342;SDS011;50675;53.530;-6.312;2023-11-19T05:25:56;10.45;;;9.85;;
64342;SDS011;50675;53.530;-6.312;2023-11-19T05:28:54;12.55;;;11.27;;
64342;SDS011;50675;53.530;-6.312;2023-11-19T05:35:53;11.70;;;11.10;;
64342;SDS011;50675;53.530;-6.312;2023-11-19T05:39:07;12.23;;;11.48;;
64342;SDS011;50675;53.530;-6.312;2023-11-19T05:41:45;10.30;;;9.73;;
64342;SDS011;50675;53.530;-6.312;2023-11-19T05:48:40;6.90;;;6.50;;
64342;SDS011;50675;53.530;-6.312;2023-11-19T05:51:41;26.35;;;8.30;;
64342;SDS011;50675;53.530;-6.312;2023-11-19T05:58:18;9.93;;;8.05;;
64342;SDS011;50675;53.530;-6.312;2023-11-19T06:05:31;8.13;;;7.63;;
64342;SDS011;50675;53.530;-6.312;2023-11-19T06:08:01;9.85;;;9.27;;
64342;SDS011;50675;53.530;-6.312;2023-11-19T06:10:57;10.48;;;9.98;;
64342;SDS011;50675;53.530;-6.312;2023-11-19T06:17:48;9.02;;;8.43;;
64342;SDS011;50675;53.530;-6.312;2023-11-19T06:20:42;13.40;;;8.25;;
64342;SDS011;50675;53.530;-6.312;2023-11-19T06:23:41;8.48;;;7.97;;
64342;SDS011;50675;53.530;-6.312;2023-11-19T06:30:50;11.60;;;11.00;;
64342;SDS011;50675;53.530;-6.312;2023-11-19T06:37:27;9.80;;;8.82;;
64342;SDS011;50675;53.530;-6.312;2023-11-19T06:39:57;9.43;;;8.93;;
64342;SDS011;50675;53.530;-6.312;2023-11-19T06:43:17;8.52;;;8.02;;
64342;SDS011;50675;53.530;-6.312;2023-11-19T06:47:09;9.10;;;8.60;;
64342;SDS011;50675;53.530;-6.312;2023-11-19T06:49:43;8.95;;;8.13;;
64342;SDS011;50675;53.530;-6.312;2023-11-19T06:53:11;10.25;;;9.65;;
64342;SDS011;50675;53.530;-6.312;2023-11-19T07:02:46;8.38;;;7.88;;
64342;SDS011;50675;53.530;-6.312;2023-11-19T07:11:45;8.60;;;8.10;;
64342;SDS011;50675;53.530;-6.312;2023-11-19T07:14:31;11.38;;;10.77;;
64342;SDS011;50675;53.530;-6.312;2023-11-19T07:21:34;8.43;;;7.93;;
64342;SDS011;50675;53.530;-6.312;2023-11-19T07:28:45;7.65;;;7.05;;
64342;SDS011;50675;53.530;-6.312;2023-11-19T07:39:09;10.63;;;10.13;;
64342;SDS011;50675;53.530;-6.312;2023-11-19T07:42:34;10.80;;;10.02;;
64342;SDS011;50675;53.530;-6.312;2023-11-19T07:45:53;7.80;;;7.20;;
64342;SDS011;50675;53.530;-6.312;2023-11-19T07:52:30;7.65;;;7.25;;
64342;SDS011;50675;53.530;-6.312;2023-11-19T07:55:19;10.48;;;9.73;;
64342;SDS011;50675;53.530;-6.312;2023-11-19T08:05:27;7.45;;;7.00;;
64342;SDS011;50675;53.530;-6.312;2023-11-19T08:08:24;9.55;;;9.05;;
64342;SDS011;50675;53.530;-6.312;2023-11-19T08:15:07;9.52;;;8.82;;
64342;SDS011;50675;53.530;-6.312;2023-11-19T08:18:26;7.10;;;6.70;;
64342;SDS011;50675;53.530;-6.312;2023-11-19T08:24:46;12.75;;;6.18;;
64342;SDS011;50675;53.530;-6.312;2023-11-19T08:28:30;6.07;;;5.78;;
64342;SDS011;50675;53.530;-6.312;2023-11-19T08:31:40;6.93;;;6.53;;
64342;SDS011;50675;53.530;-6.312;2023-11-19T08:35:15;7.95;;;7.55;;
64342;SDS011;50675;53.530;-6.312;2023-11-19T08:38:16;7.00;;;6.55;;
64342;SDS011;50675;53.530;-6.312;2023-11-19T08:41:10;6.63;;;6.22;;
64342;SDS011;50675;53.530;-6.312;2023-11-19T08:48:19;5.95;;;5.65;;
64342;SDS011;50675;53.530;-6.312;2023-11-19T08:51:49;10.50;;;6.90;;
64342;SDS011;50675;53.530;-6.312;2023-11-19T08:55:19;6.70;;;6.30;;
64342;SDS011;50675;53.530;-6.312;2023-11-19T09:02:06;7.80;;;7.35;;
64342;SDS011;50675;53.530;-6.312;2023-11-19T09:05:15;8.48;;;7.97;;
64342;SDS011;50675;53.530;-6.312;2023-11-19T09:11:43;6.97;;;6.57;;
64342;SDS011;50675;53.530;-6.312;2023-11-19T09:14:50;5.53;;;5.22;;
64342;SDS011;50675;53.530;-6.312;2023-11-19T09:17:43;4.97;;;4.68;;
64342;SDS011;50675;53.530;-6.312;2023-11-19T09:20:48;4.13;;;3.92;;
64342;SDS011;50675;53.530;-6.312;2023-11-19T09:23:46;4.40;;;4.20;;
64342;SDS011;50675;53.530;-6.312;2023-11-19T09:26:37;4.45;;;4.25;;
64342;SDS011;50675;53.530;-6.312;2023-11-19T09:37:32;3.90;;;3.70;;
64342;SDS011;50675;53.530;-6.312;2023-11-19T09:40:43;4.80;;;4.50;;
64342;SDS011;50675;53.530;-6.312;2023-11-19T09:47:05;4.32;;;4.13;;
64342;SDS011;50675;53.530;-6.312;2023-11-19T09:50:00;4.40;;;4.20;;
64342;SDS011;50675;53.530;-6.312;2023-11-19T10:03:58;5.47;;;5.18;;
64342;SDS011;50675;53.530;-6.312;2023-11-19T10:13:32;3.38;;;3.28;;
64342;SDS011;50675;53.530;-6.312;2023-11-19T10:23:56;4.82;;;4.60;;
64342;SDS011;50675;53.530;-6.312;2023-11-19T10:26:44;4.40;;;4.20;;
64342;SDS011;50675;53.530;-6.312;2023-11-19T10:33:48;4.78;;;4.47;;
64342;SDS011;50675;53.530;-6.312;2023-11-19T10:36:38;3.83;;;3.63;;
64342;SDS011;50675;53.530;-6.312;2023-11-19T10:39:13;4.53;;;4.22;;
64342;SDS011;50675;53.530;-6.312;2023-11-19T10:42:32;3.90;;;3.70;;
64342;SDS011;50675;53.530;-6.312;2023-11-19T10:48:43;3.60;;;3.40;;
64342;SDS011;50675;53.530;-6.312;2023-11-19T10:52:00;3.22;;;3.13;;
64342;SDS011;50675;53.530;-6.312;2023-11-19T10:54:47;4.18;;;3.97;;
64342;SDS011;50675;53.530;-6.312;2023-11-19T11:01:55;3.67;;;3.47;;
64342;SDS011;50675;53.530;-6.312;2023-11-19T11:04:38;3.85;;;3.65;;
64342;SDS011;50675;53.530;-6.312;2023-11-19T11:11:26;9.48;;;3.78;;
64342;SDS011;50675;53.530;-6.312;2023-11-19T11:14:13;4.10;;;3.83;;
64342;SDS011;50675;53.530;-6.312;2023-11-19T11:20:45;4.18;;;3.97;;
64342;SDS011;50675;53.530;-6.312;2023-11-19T11:33:07;5.63;;;5.13;;
64342;SDS011;50675;53.530;-6.312;2023-11-19T11:36:27;5.20;;;4.90;;
64342;SDS011;50675;53.530;-6.312;2023-11-19T11:39:08;4.90;;;4.60;;
64342;SDS011;50675;53.530;-6.312;2023-11-19T11:45:11;6.30;;;5.90;;
64342;SDS011;50675;53.530;-6.312;2023-11-19T11:48:26;6.15;;;5.68;;
64342;SDS011;50675;53.530;-6.312;2023-11-19T11:51:59;7.53;;;6.88;;
64342;SDS011;50675;53.530;-6.312;2023-11-19T11:58:41;7.93;;;5.78;;
64342;SDS011;50675;53.530;-6.312;2023-11-19T12:05:19;6.53;;;6.13;;
64342;SDS011;50675;53.530;-6.312;2023-11-19T12:08:03;5.93;;;5.47;;
64342;SDS011;50675;53.530;-6.312;2023-11-19T12:11:02;6.38;;;5.97;;
64342;SDS011;50675;53.530;-6.312;2023-11-19T12:20:18;6.80;;;6.30;;
64342;SDS011;50675;53.530;-6.312;2023-11-19T12:23:50;7.55;;;7.05;;
64342;SDS011;50675;53.530;-6.312;2023-11-19T13:07:15;5.70;;;5.40;;
64342;SDS011;50675;53.530;-6.312;2023-11-19T13:10:01;5.57;;;5.28;;
64342;SDS011;50675;53.530;-6.312;2023-11-19T13:12:39;5.13;;;4.82;;
64342;SDS011;50675;53.530;-6.312;2023-11-19T13:15:43;5.07;;;4.78;;
64342;SDS011;50675;53.530;-6.312;2023-11-19T13:18:17;5.95;;;5.55;;
64342;SDS011;50675;53.530;-6.312;2023-11-19T13:21:01;5.80;;;5.47;;
64342;SDS011;50675;53.530;-6.312;2023-11-19T13:23:35;5.10;;;4.80;;
64342;SDS011;50675;53.530;-6.312;2023-11-19T13:26:04;5.20;;;4.90;;
64342;SDS011;50675;53.530;-6.312;2023-11-19T13:28:39;5.00;;;4.70;;
64342;SDS011;50675;53.530;-6.312;2023-11-19T13:31:09;5.10;;;4.80;;
64342;SDS011;50675;53.530;-6.312;2023-11-19T13:33:53;5.60;;;5.13;;
64342;SDS011;50675;53.530;-6.312;2023-11-19T13:36:31;5.82;;;5.40;;
64342;SDS011;50675;53.530;-6.312;2023-11-19T13:39:09;5.97;;;4.88;;
64342;SDS011;50675;53.530;-6.312;2023-11-19T13:41:46;5.68;;;5.25;;
64342;SDS011;50675;53.530;-6.312;2023-11-19T13:44:26;5.82;;;5.43;;
64342;SDS011;50675;53.530;-6.312;2023-11-19T13:47:08;4.65;;;4.45;;
64342;SDS011;50675;53.530;-6.312;2023-11-19T13:49:49;7.68;;;4.80;;
64342;SDS011;50675;53.530;-6.312;2023-11-19T13:52:23;5.38;;;5.07;;
64342;SDS011;50675;53.530;-6.312;2023-11-19T13:54:54;4.68;;;4.47;;
64342;SDS011;50675;53.530;-6.312;2023-11-19T13:57:31;5.20;;;4.90;;
64342;SDS011;50675;53.530;-6.312;2023-11-19T14:03:41;5.20;;;4.90;;
64342;SDS011;50675;53.530;-6.312;2023-11-19T14:06:18;8.98;;;5.20;;
64342;SDS011;50675;53.530;-6.312;2023-11-19T14:08:51;6.90;;;6.25;;
64342;SDS011;50675;53.530;-6.312;2023-11-19T14:11:17;5.85;;;5.43;;
64342;SDS011;50675;53.530;-6.312;2023-11-19T14:14:01;6.25;;;5.85;;
64342;SDS011;50675;53.530;-6.312;2023-11-19T14:16:42;6.65;;;6.25;;
64342;SDS011;50675;53.530;-6.312;2023-11-19T14:21:56;8.02;;;6.18;;
64342;SDS011;50675;53.530;-6.312;2023-11-19T14:24:34;5.93;;;5.53;;
64342;SDS011;50675;53.530;-6.312;2023-11-19T14:27:21;6.28;;;5.80;;
64342;SDS011;50675;53.530;-6.312;2023-11-19T14:29:53;10.13;;;5.80;;
64342;SDS011;50675;53.530;-6.312;2023-11-19T14:32:25;9.38;;;7.00;;
64342;SDS011;50675;53.530;-6.312;2023-11-19T14:34:51;6.43;;;6.03;;
64342;SDS011;50675;53.530;-6.312;2023-11-19T14:37:16;5.85;;;5.45;;
64342;SDS011;50675;53.530;-6.312;2023-11-19T14:39:43;6.43;;;5.93;;
64342;SDS011;50675;53.530;-6.312;2023-11-19T14:42:09;6.03;;;5.65;;
64342;SDS011;50675;53.530;-6.312;2023-11-19T14:44:35;5.75;;;5.45;;
64342;SDS011;50675;53.530;-6.312;2023-11-19T14:47:04;7.10;;;6.55;;
64342;SDS011;50675;53.530;-6.312;2023-11-19T14:49:56;9.25;;;6.05;;
64342;SDS011;50675;53.530;-6.312;2023-11-19T14:52:22;6.15;;;5.80;;
64342;SDS011;50675;53.530;-6.312;2023-11-19T14:54:59;5.30;;;4.93;;
64342;SDS011;50675;53.530;-6.312;2023-11-19T14:57:34;5.55;;;5.25;;
64342;SDS011;50675;53.530;-6.312;2023-11-19T15:00:17;6.15;;;5.75;;
64342;SDS011;50675;53.530;-6.312;2023-11-19T15:02:56;9.15;;;8.35;;
64342;SDS011;50675;53.530;-6.312;2023-11-19T15:05:31;8.15;;;7.65;;
64342;SDS011;50675;53.530;-6.312;2023-11-19T15:08:09;6.90;;;6.50;;
64342;SDS011;50675;53.530;-6.312;2023-11-19T15:10:35;8.32;;;7.60;;
64342;SDS011;50675;53.530;-6.312;2023-11-19T15:13:04;8.43;;;7.70;;
64342;SDS011;50675;53.530;-6.312;2023-11-19T15:15:35;9.25;;;7.60;;
64342;SDS011;50675;53.530;-6.312;2023-11-19T15:18:02;7.28;;;6.68;;
64342;SDS011;50675;53.530;-6.312;2023-11-19T15:20:35;6.72;;;6.22;;
64342;SDS011;50675;53.530;-6.312;2023-11-19T15:23:13;7.28;;;6.68;;
64342;SDS011;50675;53.530;-6.312;2023-11-19T15:25:39;6.80;;;6.40;;
64342;SDS011;50675;53.530;-6.312;2023-11-19T15:28:16;6.38;;;5.85;;
64342;SDS011;50675;53.530;-6.312;2023-11-19T15:31:10;10.45;;;5.82;;
64342;SDS011;50675;53.530;-6.312;2023-11-19T15:33:50;5.38;;;4.93;;
64342;SDS011;50675;53.530;-6.312;2023-11-19T15:36:25;11.13;;;4.75;;
64342;SDS011;50675;53.530;-6.312;2023-11-19T15:38:52;8.40;;;4.68;;
64342;SDS011;50675;53.530;-6.312;2023-11-19T15:43:58;7.20;;;5.28;;
64342;SDS011;50675;53.530;-6.312;2023-11-19T15:46:26;5.07;;;4.78;;
64342;SDS011;50675;53.530;-6.312;2023-11-19T15:48:55;9.45;;;5.82;;
64342;SDS011;50675;53.530;-6.312;2023-11-19T15:51:32;5.43;;;5.13;;
64342;SDS011;50675;53.530;-6.312;2023-11-19T15:54:01;5.97;;;5.53;;
64342;SDS011;50675;53.530;-6.312;2023-11-19T15:56:29;6.15;;;5.75;;
64342;SDS011;50675;53.530;-6.312;2023-11-19T15:59:01;5.78;;;5.35;;
64342;SDS011;50675;53.530;-6.312;2023-11-19T16:01:53;5.72;;;5.43;;
64342;SDS011;50675;53.530;-6.312;2023-11-19T16:04:25;5.88;;;5.43;;
64342;SDS011;50675;53.530;-6.312;2023-11-19T16:06:54;6.95;;;6.35;;
64342;SDS011;50675;53.530;-6.312;2023-11-19T16:09:20;7.57;;;5.15;;
64342;SDS011;50675;53.530;-6.312;2023-11-19T16:11:48;7.85;;;6.82;;
64342;SDS011;50675;53.530;-6.312;2023-11-19T16:14:20;7.85;;;7.13;;
64342;SDS011;50675;53.530;-6.312;2023-11-19T16:16:49;11.85;;;7.43;;
64342;SDS011;50675;53.530;-6.312;2023-11-19T16:19:36;6.75;;;6.35;;
64342;SDS011;50675;53.530;-6.312;2023-11-19T16:22:25;6.50;;;5.82;;
64342;SDS011;50675;53.530;-6.312;2023-11-19T16:24:51;21.85;;;5.07;;
64342;SDS011;50675;53.530;-6.312;2023-11-19T16:28:06;8.68;;;5.50;;
64342;SDS011;50675;53.530;-6.312;2023-11-19T16:37:49;5.40;;;5.00;;
64342;SDS011;50675;53.530;-6.312;2023-11-19T16:41:03;5.47;;;5.13;;
64342;SDS011;50675;53.530;-6.312;2023-11-19T16:44:28;6.00;;;5.60;;
64342;SDS011;50675;53.530;-6.312;2023-11-19T16:47:45;6.22;;;5.80;;
64342;SDS011;50675;53.530;-6.312;2023-11-19T16:50:41;8.55;;;7.60;;
64342;SDS011;50675;53.530;-6.312;2023-11-19T16:54:34;6.05;;;5.65;;
64342;SDS011;50675;53.530;-6.312;2023-11-19T17:00:53;9.75;;;9.10;;
64342;SDS011;50675;53.530;-6.312;2023-11-19T17:04:04;5.88;;;5.53;;
64342;SDS011;50675;53.530;-6.312;2023-11-19T17:10:36;5.28;;;4.88;;
64342;SDS011;50675;53.530;-6.312;2023-11-19T17:20:31;5.03;;;4.65;;
64342;SDS011;50675;53.530;-6.312;2023-11-19T17:23:17;4.40;;;3.90;;
64342;SDS011;50675;53.530;-6.312;2023-11-19T17:26:26;5.72;;;5.25;;
64342;SDS011;50675;53.530;-6.312;2023-11-19T17:29:39;13.23;;;5.60;;
64342;SDS011;50675;53.530;-6.312;2023-11-19T17:36:24;5.82;;;4.53;;
64342;SDS011;50675;53.530;-6.312;2023-11-19T17:39:30;4.30;;;3.75;;
64342;SDS011;50675;53.530;-6.312;2023-11-19T17:46:16;9.38;;;4.10;;
64342;SDS011;50675;53.530;-6.312;2023-11-19T17:49:45;5.18;;;4.88;;
64342;SDS011;50675;53.530;-6.312;2023-11-19T17:52:46;5.18;;;4.60;;
64342;SDS011;50675;53.530;-6.312;2023-11-19T17:59:30;8.10;;;4.93;;
64342;SDS011;50675;53.530;-6.312;2023-11-19T18:13:46;7.38;;;4.72;;
64342;SDS011;50675;53.530;-6.312;2023-11-19T18:17:14;4.57;;;4.28;;
64342;SDS011;50675;53.530;-6.312;2023-11-19T18:31:22;3.40;;;3.22;;
64342;SDS011;50675;53.530;-6.312;2023-11-19T18:51:35;6.15;;;5.60;;
64342;SDS011;50675;53.530;-6.312;2023-11-19T18:58:18;4.70;;;4.40;;
64342;SDS011;50675;53.530;-6.312;2023-11-19T19:20:13;6.35;;;4.82;;
64342;SDS011;50675;53.530;-6.312;2023-11-19T19:23:46;9.63;;;5.50;;
64342;SDS011;50675;53.530;-6.312;2023-11-19T19:26:45;20.02;;;6.43;;
64342;SDS011;50675;53.530;-6.312;2023-11-19T19:30:06;7.78;;;6.70;;
64342;SDS011;50675;53.530;-6.312;2023-11-19T19:40:07;17.73;;;4.95;;
64342;SDS011;50675;53.530;-6.312;2023-11-19T19:43:37;8.43;;;5.30;;
64342;SDS011;50675;53.530;-6.312;2023-11-19T19:46:58;9.30;;;6.57;;
64342;SDS011;50675;53.530;-6.312;2023-11-19T19:50:09;9.82;;;4.85;;
64342;SDS011;50675;53.530;-6.312;2023-11-19T19:53:39;18.95;;;11.25;;
64342;SDS011;50675;53.530;-6.312;2023-11-19T22:59:36;7.55;;;5.05;;
64342;SDS011;50675;53.530;-6.312;2023-11-19T23:03:23;5.28;;;4.97;;
64342;SDS011;50675;53.530;-6.312;2023-11-19T23:06:46;5.45;;;5.03;;
64342;SDS011;50675;53.530;-6.312;2023-11-19T23:21:40;9.45;;;6.88;;
64342;SDS011;50675;53.530;-6.312;2023-11-19T23:38:09;5.57;;;5.28;;
64342;SDS011;50675;53.530;-6.312;2023-11-19T23:45:41;5.32;;;5.03;;
